sensor_id;sensor_type;location;lat;lon;timestamp;temperature;humidity
10304;DHT22;5197;48.152;8.590;2024-03-23T00:54:08;9.50;1.00
10304;DHT22;5197;48.152;8.590;2024-03-23T00:56:34;9.50;1.00
10304;DHT22;5197;48.152;8.590;2024-03-23T00:59:00;9.40;1.00
10304;DHT22;5197;48.152;8.590;2024-03-23T01:01:26;9.40;1.00
10304;DHT22;5197;48.152;8.590;2024-03-23T01:03:52;9.30;1.00
10304;DHT22;5197;48.152;8.590;2024-03-23T01:06:18;9.30;1.00
10304;DHT22;5197;48.152;8.590;2024-03-23T01:08:44;9.20;1.00
10304;DHT22;5197;48.152;8.590;2024-03-23T01:11:10;9.10;1.00
10304;DHT22;5197;48.152;8.590;2024-03-23T01:13:36;8.90;1.00
10304;DHT22;5197;48.152;8.590;2024-03-23T01:16:02;9.00;1.00
10304;DHT22;5197;48.152;8.590;2024-03-23T01:18:27;9.10;1.00
10304;DHT22;5197;48.152;8.590;2024-03-23T01:20:53;9.00;1.00
10304;DHT22;5197;48.152;8.590;2024-03-23T01:23:19;8.90;1.00
10304;DHT22;5197;48.152;8.590;2024-03-23T01:25:52;8.90;1.00
10304;DHT22;5197;48.152;8.590;2024-03-23T01:28:19;8.90;1.00
10304;DHT22;5197;48.152;8.590;2024-03-23T01:30:45;9.00;1.00
10304;DHT22;5197;48.152;8.590;2024-03-23T01:33:11;8.90;1.00
10304;DHT22;5197;48.152;8.590;2024-03-23T01:35:37;8.90;1.00
10304;DHT22;5197;48.152;8.590;2024-03-23T01:38:03;8.80;1.00
10304;DHT22;5197;48.152;8.590;2024-03-23T01:40:29;8.90;1.00
10304;DHT22;5197;48.152;8.590;2024-03-23T01:42:58;8.80;1.00
10304;DHT22;5197;48.152;8.590;2024-03-23T01:45:27;8.80;1.00
10304;DHT22;5197;48.152;8.590;2024-03-23T01:47:53;8.90;1.00
10304;DHT22;5197;48.152;8.590;2024-03-23T01:50:20;8.90;1.00
10304;DHT22;5197;48.152;8.590;2024-03-23T01:52:47;8.90;1.00
10304;DHT22;5197;48.152;8.590;2024-03-23T01:55:14;9.00;1.00
10304;DHT22;5197;48.152;8.590;2024-03-23T01:57:40;9.00;1.00
10304;DHT22;5197;48.152;8.590;2024-03-23T02:00:06;9.00;1.00
10304;DHT22;5197;48.152;8.590;2024-03-23T02:02:32;9.10;1.00
10304;DHT22;5197;48.152;8.590;2024-03-23T02:04:58;9.10;1.00
10304;DHT22;5197;48.152;8.590;2024-03-23T02:07:24;9.10;1.00
10304;DHT22;5197;48.152;8.590;2024-03-23T02:09:51;9.10;1.00
10304;DHT22;5197;48.152;8.590;2024-03-23T02:12:18;9.20;1.00
10304;DHT22;5197;48.152;8.590;2024-03-23T02:14:44;9.30;1.00
10304;DHT22;5197;48.152;8.590;2024-03-23T02:17:10;9.30;1.00
10304;DHT22;5197;48.152;8.590;2024-03-23T02:19:36;9.40;1.00
10304;DHT22;5197;48.152;8.590;2024-03-23T02:22:02;9.50;1.00
10304;DHT22;5197;48.152;8.590;2024-03-23T02:24:29;9.40;1.00
10304;DHT22;5197;48.152;8.590;2024-03-23T02:26:57;9.50;1.00
10304;DHT22;5197;48.152;8.590;2024-03-23T02:29:22;11.00;1.00
10304;DHT22;5197;48.152;8.590;2024-03-23T02:31:48;9.60;1.00
10304;DHT22;5197;48.152;8.590;2024-03-23T02:34:14;9.60;1.00
10304;DHT22;5197;48.152;8.590;2024-03-23T02:36:40;9.60;1.00
10304;DHT22;5197;48.152;8.590;2024-03-23T02:39:06;9.70;1.00
10304;DHT22;5197;48.152;8.590;2024-03-23T02:41:32;9.70;1.00
10304;DHT22;5197;48.152;8.590;2024-03-23T02:43:58;9.70;1.00
10304;DHT22;5197;48.152;8.590;2024-03-23T02:46:24;9.70;1.00
10304;DHT22;5197;48.152;8.590;2024-03-23T02:48:50;9.70;1.00
10304;DHT22;5197;48.152;8.590;2024-03-23T02:51:15;9.80;1.00
10304;DHT22;5197;48.152;8.590;2024-03-23T02:53:41;9.80;1.00
10304;DHT22;5197;48.152;8.590;2024-03-23T02:56:07;9.80;1.00
10304;DHT22;5197;48.152;8.590;2024-03-23T02:58:34;9.80;1.00
10304;DHT22;5197;48.152;8.590;2024-03-23T03:01:00;9.80;1.00
10304;DHT22;5197;48.152;8.590;2024-03-23T03:03:26;9.80;1.00
10304;DHT22;5197;48.152;8.590;2024-03-23T03:05:55;9.90;1.00
10304;DHT22;5197;48.152;8.590;2024-03-23T03:08:22;9.90;1.00
10304;DHT22;5197;48.152;8.590;2024-03-23T03:10:47;9.90;1.00
10304;DHT22;5197;48.152;8.590;2024-03-23T03:13:13;9.80;1.00
10304;DHT22;5197;48.152;8.590;2024-03-23T03:15:41;10.00;1.00
10304;DHT22;5197;48.152;8.590;2024-03-23T03:18:08;10.00;1.00
10304;DHT22;5197;48.152;8.590;2024-03-23T03:20:34;10.00;1.00
10304;DHT22;5197;48.152;8.590;2024-03-23T03:23:00;10.10;1.00
10304;DHT22;5197;48.152;8.590;2024-03-23T03:25:26;10.30;1.00
10304;DHT22;5197;48.152;8.590;2024-03-23T03:27:52;10.40;1.00
10304;DHT22;5197;48.152;8.590;2024-03-23T03:30:18;10.50;1.00
10304;DHT22;5197;48.152;8.590;2024-03-23T03:32:44;10.70;1.00
10304;DHT22;5197;48.152;8.590;2024-03-23T03:35:09;10.70;1.00
10304;DHT22;5197;48.152;8.590;2024-03-23T03:37:35;10.80;1.00
10304;DHT22;5197;48.152;8.590;2024-03-23T03:40:01;10.80;1.00
10304;DHT22;5197;48.152;8.590;2024-03-23T03:42:27;10.90;1.00
10304;DHT22;5197;48.152;8.590;2024-03-23T03:44:53;12.70;1.00
10304;DHT22;5197;48.152;8.590;2024-03-23T03:47:44;11.00;1.00
10304;DHT22;5197;48.152;8.590;2024-03-23T03:50:35;11.10;1.00
10304;DHT22;5197;48.152;8.590;2024-03-23T03:53:03;11.10;1.00
10304;DHT22;5197;48.152;8.590;2024-03-23T03:55:29;11.10;1.00
10304;DHT22;5197;48.152;8.590;2024-03-23T03:57:54;11.10;1.00
10304;DHT22;5197;48.152;8.590;2024-03-23T04:00:20;11.10;1.00
10304;DHT22;5197;48.152;8.590;2024-03-23T04:02:46;11.20;1.00
10304;DHT22;5197;48.152;8.590;2024-03-23T04:05:13;11.20;1.00
10304;DHT22;5197;48.152;8.590;2024-03-23T04:07:39;11.30;1.00
10304;DHT22;5197;48.152;8.590;2024-03-23T04:10:05;11.20;1.00
10304;DHT22;5197;48.152;8.590;2024-03-23T04:12:34;11.20;1.00
10304;DHT22;5197;48.152;8.590;2024-03-23T04:15:00;11.20;1.00
10304;DHT22;5197;48.152;8.590;2024-03-23T04:17:27;11.20;1.00
10304;DHT22;5197;48.152;8.590;2024-03-23T04:19:57;11.20;1.00
10304;DHT22;5197;48.152;8.590;2024-03-23T04:22:24;11.30;1.00
10304;DHT22;5197;48.152;8.590;2024-03-23T04:24:53;11.30;1.00
10304;DHT22;5197;48.152;8.590;2024-03-23T04:27:19;11.30;1.00
10304;DHT22;5197;48.152;8.590;2024-03-23T04:29:49;11.30;1.00
10304;DHT22;5197;48.152;8.590;2024-03-23T04:32:15;11.40;1.00
10304;DHT22;5197;48.152;8.590;2024-03-23T04:34:42;11.40;1.00
10304;DHT22;5197;48.152;8.590;2024-03-23T04:37:09;11.40;1.00
10304;DHT22;5197;48.152;8.590;2024-03-23T04:39:38;13.40;1.00
10304;DHT22;5197;48.152;8.590;2024-03-23T04:42:05;11.30;1.00
10304;DHT22;5197;48.152;8.590;2024-03-23T04:44:31;11.40;1.00
10304;DHT22;5197;48.152;8.590;2024-03-23T04:46:57;11.40;1.00
10304;DHT22;5197;48.152;8.590;2024-03-23T04:49:23;11.40;1.00
10304;DHT22;5197;48.152;8.590;2024-03-23T04:51:49;11.40;1.00
10304;DHT22;5197;48.152;8.590;2024-03-23T04:54:15;11.40;1.00
10304;DHT22;5197;48.152;8.590;2024-03-23T04:56:41;11.40;1.00
10304;DHT22;5197;48.152;8.590;2024-03-23T04:59:07;11.40;1.00
10304;DHT22;5197;48.152;8.590;2024-03-23T05:01:34;11.40;1.00
10304;DHT22;5197;48.152;8.590;2024-03-23T05:04:00;13.10;1.00
10304;DHT22;5197;48.152;8.590;2024-03-23T05:06:27;11.40;1.00
10304;DHT22;5197;48.152;8.590;2024-03-23T05:08:53;13.00;1.00
10304;DHT22;5197;48.152;8.590;2024-03-23T05:11:18;11.30;1.00
10304;DHT22;5197;48.152;8.590;2024-03-23T05:13:45;11.60;1.00
10304;DHT22;5197;48.152;8.590;2024-03-23T05:16:11;11.30;1.00
10304;DHT22;5197;48.152;8.590;2024-03-23T05:18:36;11.20;1.00
10304;DHT22;5197;48.152;8.590;2024-03-23T05:21:03;11.20;1.00
10304;DHT22;5197;48.152;8.590;2024-03-23T05:23:29;11.30;1.00
10304;DHT22;5197;48.152;8.590;2024-03-23T05:25:55;11.30;1.00
10304;DHT22;5197;48.152;8.590;2024-03-23T05:28:22;11.30;1.00
10304;DHT22;5197;48.152;8.590;2024-03-23T05:30:55;11.20;1.00
10304;DHT22;5197;48.152;8.590;2024-03-23T05:33:22;11.20;1.00
10304;DHT22;5197;48.152;8.590;2024-03-23T05:36:00;10.80;4.90
10304;DHT22;5197;48.152;8.590;2024-03-23T05:38:30;10.10;9.50
10304;DHT22;5197;48.152;8.590;2024-03-23T05:40:59;9.50;15.50
10304;DHT22;5197;48.152;8.590;2024-03-23T05:43:26;9.10;17.70
10304;DHT22;5197;48.152;8.590;2024-03-23T05:45:57;8.80;20.70
10304;DHT22;5197;48.152;8.590;2024-03-23T05:48:24;9.20;21.10
10304;DHT22;5197;48.152;8.590;2024-03-23T05:50:50;8.60;22.10
10304;DHT22;5197;48.152;8.590;2024-03-23T05:53:17;8.50;25.10
10304;DHT22;5197;48.152;8.590;2024-03-23T05:56:00;8.40;26.30
10304;DHT22;5197;48.152;8.590;2024-03-23T05:58:29;8.20;27.50
10304;DHT22;5197;48.152;8.590;2024-03-23T06:00:58;8.10;28.30
10304;DHT22;5197;48.152;8.590;2024-03-23T06:03:38;8.10;28.90
10304;DHT22;5197;48.152;8.590;2024-03-23T06:06:25;8.10;28.70
10304;DHT22;5197;48.152;8.590;2024-03-23T06:08:51;8.10;29.10
10304;DHT22;5197;48.152;8.590;2024-03-23T06:11:17;8.00;27.10
10304;DHT22;5197;48.152;8.590;2024-03-23T06:13:50;8.00;27.60
10304;DHT22;5197;48.152;8.590;2024-03-23T06:16:16;8.00;28.50
10304;DHT22;5197;48.152;8.590;2024-03-23T06:18:42;8.00;26.80
10304;DHT22;5197;48.152;8.590;2024-03-23T06:21:14;7.90;27.30
10304;DHT22;5197;48.152;8.590;2024-03-23T06:23:44;8.00;27.30
10304;DHT22;5197;48.152;8.590;2024-03-23T06:26:19;8.00;26.90
10304;DHT22;5197;48.152;8.590;2024-03-23T06:28:46;7.90;28.00
10304;DHT22;5197;48.152;8.590;2024-03-23T06:31:12;7.90;27.50
10304;DHT22;5197;48.152;8.590;2024-03-23T06:33:38;7.90;26.20
10304;DHT22;5197;48.152;8.590;2024-03-23T06:36:05;7.90;25.50
10304;DHT22;5197;48.152;8.590;2024-03-23T06:38:31;7.90;23.10
10304;DHT22;5197;48.152;8.590;2024-03-23T06:40:57;7.90;23.70
10304;DHT22;5197;48.152;8.590;2024-03-23T06:43:24;8.00;23.90
10304;DHT22;5197;48.152;8.590;2024-03-23T06:45:54;7.90;24.30
10304;DHT22;5197;48.152;8.590;2024-03-23T06:48:21;7.80;24.50
10304;DHT22;5197;48.152;8.590;2024-03-23T06:50:48;7.60;23.80
10304;DHT22;5197;48.152;8.590;2024-03-23T06:53:14;7.70;25.00
10304;DHT22;5197;48.152;8.590;2024-03-23T06:55:50;7.70;25.20
10304;DHT22;5197;48.152;8.590;2024-03-23T06:58:16;7.60;25.70
10304;DHT22;5197;48.152;8.590;2024-03-23T07:00:42;7.50;24.50
10304;DHT22;5197;48.152;8.590;2024-03-23T07:03:12;7.30;25.80
10304;DHT22;5197;48.152;8.590;2024-03-23T07:05:45;7.10;26.20
10304;DHT22;5197;48.152;8.590;2024-03-23T07:08:12;7.10;26.20
10304;DHT22;5197;48.152;8.590;2024-03-23T07:10:42;7.10;27.30
10304;DHT22;5197;48.152;8.590;2024-03-23T07:13:08;7.10;25.20
10304;DHT22;5197;48.152;8.590;2024-03-23T07:15:34;7.10;24.00
10304;DHT22;5197;48.152;8.590;2024-03-23T07:18:00;7.30;23.60
10304;DHT22;5197;48.152;8.590;2024-03-23T07:20:25;7.40;23.10
10304;DHT22;5197;48.152;8.590;2024-03-23T07:22:52;7.40;19.90
10304;DHT22;5197;48.152;8.590;2024-03-23T07:25:18;7.40;18.00
10304;DHT22;5197;48.152;8.590;2024-03-23T07:27:43;7.30;17.30
10304;DHT22;5197;48.152;8.590;2024-03-23T07:30:11;7.20;16.60
10304;DHT22;5197;48.152;8.590;2024-03-23T07:32:37;7.40;19.00
10304;DHT22;5197;48.152;8.590;2024-03-23T07:35:03;7.60;18.20
10304;DHT22;5197;48.152;8.590;2024-03-23T07:37:29;7.60;14.70
10304;DHT22;5197;48.152;8.590;2024-03-23T07:39:55;7.40;14.30
10304;DHT22;5197;48.152;8.590;2024-03-23T07:42:23;7.40;15.30
10304;DHT22;5197;48.152;8.590;2024-03-23T07:44:49;7.40;15.50
10304;DHT22;5197;48.152;8.590;2024-03-23T07:47:16;7.40;14.30
10304;DHT22;5197;48.152;8.590;2024-03-23T07:49:42;7.40;15.30
10304;DHT22;5197;48.152;8.590;2024-03-23T07:52:08;7.50;21.30
10304;DHT22;5197;48.152;8.590;2024-03-23T07:54:42;7.70;20.10
10304;DHT22;5197;48.152;8.590;2024-03-23T07:57:07;7.40;14.00
10304;DHT22;5197;48.152;8.590;2024-03-23T07:59:33;8.30;16.80
10304;DHT22;5197;48.152;8.590;2024-03-23T08:02:00;6.40;17.40
10304;DHT22;5197;48.152;8.590;2024-03-23T08:04:27;6.30;23.40
10304;DHT22;5197;48.152;8.590;2024-03-23T08:06:53;6.10;22.30
10304;DHT22;5197;48.152;8.590;2024-03-23T08:09:19;6.10;25.80
10304;DHT22;5197;48.152;8.590;2024-03-23T08:11:45;6.10;22.80
10304;DHT22;5197;48.152;8.590;2024-03-23T08:14:12;6.10;20.70
10304;DHT22;5197;48.152;8.590;2024-03-23T08:16:38;5.90;23.20
10304;DHT22;5197;48.152;8.590;2024-03-23T08:19:04;5.70;20.20
10304;DHT22;5197;48.152;8.590;2024-03-23T08:21:30;5.50;21.20
10304;DHT22;5197;48.152;8.590;2024-03-23T08:23:56;5.40;21.30
10304;DHT22;5197;48.152;8.590;2024-03-23T08:26:22;5.50;28.10
10304;DHT22;5197;48.152;8.590;2024-03-23T08:28:48;5.40;21.90
10304;DHT22;5197;48.152;8.590;2024-03-23T08:31:15;5.40;25.50
10304;DHT22;5197;48.152;8.590;2024-03-23T08:33:40;5.40;25.90
10304;DHT22;5197;48.152;8.590;2024-03-23T08:36:09;5.40;24.40
10304;DHT22;5197;48.152;8.590;2024-03-23T08:38:40;5.50;21.70
10304;DHT22;5197;48.152;8.590;2024-03-23T08:41:11;5.30;21.30
10304;DHT22;5197;48.152;8.590;2024-03-23T08:43:41;5.30;18.30
10304;DHT22;5197;48.152;8.590;2024-03-23T08:46:11;5.40;18.60
10304;DHT22;5197;48.152;8.590;2024-03-23T08:48:39;5.40;18.60
10304;DHT22;5197;48.152;8.590;2024-03-23T08:51:07;5.30;18.50
10304;DHT22;5197;48.152;8.590;2024-03-23T08:53:37;5.60;22.20
10304;DHT22;5197;48.152;8.590;2024-03-23T08:56:04;5.90;18.90
10304;DHT22;5197;48.152;8.590;2024-03-23T08:58:31;6.40;16.20
10304;DHT22;5197;48.152;8.590;2024-03-23T09:01:09;6.40;10.50
10304;DHT22;5197;48.152;8.590;2024-03-23T09:03:36;6.50;10.70
10304;DHT22;5197;48.152;8.590;2024-03-23T09:06:09;6.70;12.80
10304;DHT22;5197;48.152;8.590;2024-03-23T09:08:35;6.70;9.10
10304;DHT22;5197;48.152;8.590;2024-03-23T09:11:06;6.70;7.20
10304;DHT22;5197;48.152;8.590;2024-03-23T09:13:37;6.80;9.70
10304;DHT22;5197;48.152;8.590;2024-03-23T09:16:04;7.10;8.70
10304;DHT22;5197;48.152;8.590;2024-03-23T09:18:34;7.30;8.50
10304;DHT22;5197;48.152;8.590;2024-03-23T09:21:06;7.50;10.00
10304;DHT22;5197;48.152;8.590;2024-03-23T09:23:36;7.70;5.00
10304;DHT22;5197;48.152;8.590;2024-03-23T09:26:05;7.60;3.10
10304;DHT22;5197;48.152;8.590;2024-03-23T09:28:33;7.60;2.10
10304;DHT22;5197;48.152;8.590;2024-03-23T09:31:03;7.10;2.30
10304;DHT22;5197;48.152;8.590;2024-03-23T09:33:29;7.70;2.10
10304;DHT22;5197;48.152;8.590;2024-03-23T09:35:55;6.70;1.50
10304;DHT22;5197;48.152;8.590;2024-03-23T09:38:22;7.50;2.50
10304;DHT22;5197;48.152;8.590;2024-03-23T09:40:52;7.60;2.20
10304;DHT22;5197;48.152;8.590;2024-03-23T09:43:20;7.50;1.50
10304;DHT22;5197;48.152;8.590;2024-03-23T09:45:46;7.20;3.40
10304;DHT22;5197;48.152;8.590;2024-03-23T09:48:12;6.90;4.40
10304;DHT22;5197;48.152;8.590;2024-03-23T09:50:39;6.80;4.50
10304;DHT22;5197;48.152;8.590;2024-03-23T09:53:12;6.60;3.40
10304;DHT22;5197;48.152;8.590;2024-03-23T09:55:43;6.60;5.10
10304;DHT22;5197;48.152;8.590;2024-03-23T09:58:15;6.80;4.50
10304;DHT22;5197;48.152;8.590;2024-03-23T10:00:41;6.90;5.40
10304;DHT22;5197;48.152;8.590;2024-03-23T10:03:07;7.70;4.30
10304;DHT22;5197;48.152;8.590;2024-03-23T10:05:34;7.00;4.10
10304;DHT22;5197;48.152;8.590;2024-03-23T10:08:04;7.20;2.00
10304;DHT22;5197;48.152;8.590;2024-03-23T10:10:43;7.40;5.80
10304;DHT22;5197;48.152;8.590;2024-03-23T10:13:09;7.40;1.00
10304;DHT22;5197;48.152;8.590;2024-03-23T10:15:36;7.30;1.00
10304;DHT22;5197;48.152;8.590;2024-03-23T10:18:32;7.10;1.00
10304;DHT22;5197;48.152;8.590;2024-03-23T10:23:35;7.00;1.00
10304;DHT22;5197;48.152;8.590;2024-03-23T10:29:08;7.20;1.00
10304;DHT22;5197;48.152;8.590;2024-03-23T10:31:37;7.30;1.00
10304;DHT22;5197;48.152;8.590;2024-03-23T10:34:03;7.40;1.00
10304;DHT22;5197;48.152;8.590;2024-03-23T10:36:30;7.60;1.00
10304;DHT22;5197;48.152;8.590;2024-03-23T10:38:56;8.70;1.00
10304;DHT22;5197;48.152;8.590;2024-03-23T10:41:29;9.00;1.00
10304;DHT22;5197;48.152;8.590;2024-03-23T10:43:58;7.70;1.00
10304;DHT22;5197;48.152;8.590;2024-03-23T10:46:25;7.60;1.00
10304;DHT22;5197;48.152;8.590;2024-03-23T10:48:51;7.60;1.00
10304;DHT22;5197;48.152;8.590;2024-03-23T10:51:18;7.40;1.00
10304;DHT22;5197;48.152;8.590;2024-03-23T10:53:45;7.20;1.00
10304;DHT22;5197;48.152;8.590;2024-03-23T10:56:12;7.10;1.00
10304;DHT22;5197;48.152;8.590;2024-03-23T10:58:43;7.10;1.00
10304;DHT22;5197;48.152;8.590;2024-03-23T11:01:13;7.30;1.00
10304;DHT22;5197;48.152;8.590;2024-03-23T11:03:44;6.70;1.00
10304;DHT22;5197;48.152;8.590;2024-03-23T11:06:10;6.20;1.00
10304;DHT22;5197;48.152;8.590;2024-03-23T11:08:40;5.60;1.80
10304;DHT22;5197;48.152;8.590;2024-03-23T11:11:34;5.40;3.90
10304;DHT22;5197;48.152;8.590;2024-03-23T11:14:22;5.20;6.40
10304;DHT22;5197;48.152;8.590;2024-03-23T11:17:11;5.20;8.20
10304;DHT22;5197;48.152;8.590;2024-03-23T11:19:40;5.10;7.70
10304;DHT22;5197;48.152;8.590;2024-03-23T11:22:07;5.10;7.80
10304;DHT22;5197;48.152;8.590;2024-03-23T11:24:33;5.00;8.00
10304;DHT22;5197;48.152;8.590;2024-03-23T11:27:15;6.00;8.70
10304;DHT22;5197;48.152;8.590;2024-03-23T11:29:41;5.10;7.50
10304;DHT22;5197;48.152;8.590;2024-03-23T11:32:09;6.10;10.20
10304;DHT22;5197;48.152;8.590;2024-03-23T11:34:35;5.00;12.00
10304;DHT22;5197;48.152;8.590;2024-03-23T11:37:05;5.10;12.40
10304;DHT22;5197;48.152;8.590;2024-03-23T11:39:32;5.20;13.30
10304;DHT22;5197;48.152;8.590;2024-03-23T11:41:58;5.10;12.70
10304;DHT22;5197;48.152;8.590;2024-03-23T11:44:27;4.90;12.00
10304;DHT22;5197;48.152;8.590;2024-03-23T11:46:53;4.60;15.00
10304;DHT22;5197;48.152;8.590;2024-03-23T11:49:27;4.30;17.30
10304;DHT22;5197;48.152;8.590;2024-03-23T11:51:54;4.10;15.80
10304;DHT22;5197;48.152;8.590;2024-03-23T11:54:21;4.00;14.90
10304;DHT22;5197;48.152;8.590;2024-03-23T11:56:58;4.00;16.40
10304;DHT22;5197;48.152;8.590;2024-03-23T11:59:37;4.00;16.00
10304;DHT22;5197;48.152;8.590;2024-03-23T12:02:11;4.10;15.50
10304;DHT22;5197;48.152;8.590;2024-03-23T12:04:38;4.20;14.70
10304;DHT22;5197;48.152;8.590;2024-03-23T12:07:16;4.40;14.30
10304;DHT22;5197;48.152;8.590;2024-03-23T12:09:46;4.60;13.40
10304;DHT22;5197;48.152;8.590;2024-03-23T12:12:17;4.60;12.30
10304;DHT22;5197;48.152;8.590;2024-03-23T12:15:02;4.80;13.40
10304;DHT22;5197;48.152;8.590;2024-03-23T12:18:06;5.00;12.30
10304;DHT22;5197;48.152;8.590;2024-03-23T12:20:35;5.30;10.90
10304;DHT22;5197;48.152;8.590;2024-03-23T12:23:09;5.50;9.70
10304;DHT22;5197;48.152;8.590;2024-03-23T12:25:38;5.60;8.80
10304;DHT22;5197;48.152;8.590;2024-03-23T12:28:04;5.80;8.20
10304;DHT22;5197;48.152;8.590;2024-03-23T12:30:38;5.90;8.80
10304;DHT22;5197;48.152;8.590;2024-03-23T12:33:05;5.90;7.10
10304;DHT22;5197;48.152;8.590;2024-03-23T12:35:31;6.00;7.20
10304;DHT22;5197;48.152;8.590;2024-03-23T12:37:57;6.10;7.20
10304;DHT22;5197;48.152;8.590;2024-03-23T12:40:23;6.10;7.10
10304;DHT22;5197;48.152;8.590;2024-03-23T12:42:49;6.30;6.60
10304;DHT22;5197;48.152;8.590;2024-03-23T12:45:15;6.40;6.30
10304;DHT22;5197;48.152;8.590;2024-03-23T12:47:41;6.50;6.40
10304;DHT22;5197;48.152;8.590;2024-03-23T12:50:07;6.60;6.30
10304;DHT22;5197;48.152;8.590;2024-03-23T12:52:33;6.90;4.30
10304;DHT22;5197;48.152;8.590;2024-03-23T12:55:00;7.00;1.00
10304;DHT22;5197;48.152;8.590;2024-03-23T12:57:26;7.00;1.00
10304;DHT22;5197;48.152;8.590;2024-03-23T12:59:53;6.90;1.00
10304;DHT22;5197;48.152;8.590;2024-03-23T13:02:19;7.00;1.00
10304;DHT22;5197;48.152;8.590;2024-03-23T13:04:52;7.20;1.00
10304;DHT22;5197;48.152;8.590;2024-03-23T13:07:19;7.30;1.00
10304;DHT22;5197;48.152;8.590;2024-03-23T13:09:45;7.30;1.00
10304;DHT22;5197;48.152;8.590;2024-03-23T13:12:11;7.30;1.00
10304;DHT22;5197;48.152;8.590;2024-03-23T13:14:38;7.30;1.00
10304;DHT22;5197;48.152;8.590;2024-03-23T13:17:05;7.30;1.00
10304;DHT22;5197;48.152;8.590;2024-03-23T13:19:33;7.40;1.00
10304;DHT22;5197;48.152;8.590;2024-03-23T13:22:00;7.50;1.00
10304;DHT22;5197;48.152;8.590;2024-03-23T13:24:28;7.50;1.00
10304;DHT22;5197;48.152;8.590;2024-03-23T13:26:55;7.50;1.00
10304;DHT22;5197;48.152;8.590;2024-03-23T13:29:22;7.60;1.00
10304;DHT22;5197;48.152;8.590;2024-03-23T13:31:49;7.40;1.00
10304;DHT22;5197;48.152;8.590;2024-03-23T13:34:16;8.10;1.00
10304;DHT22;5197;48.152;8.590;2024-03-23T13:36:46;7.00;1.00
10304;DHT22;5197;48.152;8.590;2024-03-23T13:39:13;6.90;1.00
10304;DHT22;5197;48.152;8.590;2024-03-23T13:41:44;6.80;1.00
10304;DHT22;5197;48.152;8.590;2024-03-23T13:44:13;6.80;1.00
10304;DHT22;5197;48.152;8.590;2024-03-23T13:46:41;6.70;1.00
10304;DHT22;5197;48.152;8.590;2024-03-23T13:49:42;6.60;1.00
10304;DHT22;5197;48.152;8.590;2024-03-23T13:52:08;6.70;1.00
10304;DHT22;5197;48.152;8.590;2024-03-23T13:54:40;6.60;1.00
10304;DHT22;5197;48.152;8.590;2024-03-23T13:57:11;6.50;1.00
10304;DHT22;5197;48.152;8.590;2024-03-23T13:59:37;6.30;1.00
10304;DHT22;5197;48.152;8.590;2024-03-23T14:02:12;6.50;1.00
10304;DHT22;5197;48.152;8.590;2024-03-23T14:04:40;6.70;1.00
10304;DHT22;5197;48.152;8.590;2024-03-23T14:07:06;6.80;1.00
10304;DHT22;5197;48.152;8.590;2024-03-23T14:09:33;7.00;1.00
10304;DHT22;5197;48.152;8.590;2024-03-23T14:11:59;7.10;1.00
10304;DHT22;5197;48.152;8.590;2024-03-23T14:14:26;7.30;1.00
10304;DHT22;5197;48.152;8.590;2024-03-23T14:16:51;7.40;1.00
10304;DHT22;5197;48.152;8.590;2024-03-23T14:19:18;7.40;1.00
10304;DHT22;5197;48.152;8.590;2024-03-23T14:21:45;7.30;1.00
10304;DHT22;5197;48.152;8.590;2024-03-23T14:24:10;6.50;1.00
10304;DHT22;5197;48.152;8.590;2024-03-23T14:26:36;7.60;1.00
10304;DHT22;5197;48.152;8.590;2024-03-23T14:29:03;7.80;1.00
10304;DHT22;5197;48.152;8.590;2024-03-23T14:31:29;7.90;1.00
10304;DHT22;5197;48.152;8.590;2024-03-23T14:33:55;8.00;1.00
10304;DHT22;5197;48.152;8.590;2024-03-23T14:36:21;7.90;1.00
10304;DHT22;5197;48.152;8.590;2024-03-23T14:38:48;7.90;1.00
10304;DHT22;5197;48.152;8.590;2024-03-23T14:41:14;7.80;1.00
10304;DHT22;5197;48.152;8.590;2024-03-23T14:43:40;8.10;1.00
10304;DHT22;5197;48.152;8.590;2024-03-23T14:46:10;8.00;1.00
10304;DHT22;5197;48.152;8.590;2024-03-23T14:48:38;7.70;1.00
10304;DHT22;5197;48.152;8.590;2024-03-23T14:51:05;7.50;1.00
10304;DHT22;5197;48.152;8.590;2024-03-23T14:53:32;7.30;1.00
10304;DHT22;5197;48.152;8.590;2024-03-23T14:56:00;7.30;1.00
10304;DHT22;5197;48.152;8.590;2024-03-23T14:58:27;7.30;1.00
10304;DHT22;5197;48.152;8.590;2024-03-23T15:00:53;7.20;1.00
10304;DHT22;5197;48.152;8.590;2024-03-23T15:03:19;7.10;1.00
10304;DHT22;5197;48.152;8.590;2024-03-23T15:05:55;7.00;1.00
10304;DHT22;5197;48.152;8.590;2024-03-23T15:08:21;7.00;1.00
10304;DHT22;5197;48.152;8.590;2024-03-23T15:10:47;6.90;1.00
10304;DHT22;5197;48.152;8.590;2024-03-23T15:13:13;6.80;1.00
10304;DHT22;5197;48.152;8.590;2024-03-23T15:15:41;6.70;1.00
10304;DHT22;5197;48.152;8.590;2024-03-23T15:18:12;6.50;1.00
10304;DHT22;5197;48.152;8.590;2024-03-23T15:20:39;6.30;1.00
10304;DHT22;5197;48.152;8.590;2024-03-23T15:23:05;6.20;1.00
10304;DHT22;5197;48.152;8.590;2024-03-23T15:25:33;6.10;1.00
10304;DHT22;5197;48.152;8.590;2024-03-23T15:27:58;6.00;1.00
10304;DHT22;5197;48.152;8.590;2024-03-23T15:30:26;6.00;1.00
10304;DHT22;5197;48.152;8.590;2024-03-23T15:32:52;6.00;1.00
10304;DHT22;5197;48.152;8.590;2024-03-23T15:35:18;5.90;1.00
10304;DHT22;5197;48.152;8.590;2024-03-23T15:37:47;5.90;1.00
10304;DHT22;5197;48.152;8.590;2024-03-23T15:40:12;5.90;1.00
10304;DHT22;5197;48.152;8.590;2024-03-23T15:42:39;5.90;1.00
10304;DHT22;5197;48.152;8.590;2024-03-23T15:45:09;5.80;1.00
10304;DHT22;5197;48.152;8.590;2024-03-23T15:47:35;5.80;1.00
10304;DHT22;5197;48.152;8.590;2024-03-23T15:50:01;5.80;1.00
10304;DHT22;5197;48.152;8.590;2024-03-23T15:52:29;5.70;1.00
10304;DHT22;5197;48.152;8.590;2024-03-23T15:54:54;5.60;1.20
10304;DHT22;5197;48.152;8.590;2024-03-23T15:57:25;5.40;1.80
10304;DHT22;5197;48.152;8.590;2024-03-23T15:59:52;5.10;2.80
10304;DHT22;5197;48.152;8.590;2024-03-23T16:02:18;4.90;3.60
10304;DHT22;5197;48.152;8.590;2024-03-23T16:08:32;4.70;7.10
10304;DHT22;5197;48.152;8.590;2024-03-23T16:11:06;4.30;13.30
10304;DHT22;5197;48.152;8.590;2024-03-23T16:13:33;4.10;14.60
10304;DHT22;5197;48.152;8.590;2024-03-23T16:16:00;4.00;17.40
10304;DHT22;5197;48.152;8.590;2024-03-23T16:18:29;3.80;17.60
10304;DHT22;5197;48.152;8.590;2024-03-23T16:20:59;3.70;17.50
10304;DHT22;5197;48.152;8.590;2024-03-23T16:23:25;3.60;17.50
10304;DHT22;5197;48.152;8.590;2024-03-23T16:25:53;3.50;17.40
10304;DHT22;5197;48.152;8.590;2024-03-23T16:28:33;3.20;17.20
10304;DHT22;5197;48.152;8.590;2024-03-23T16:31:03;3.20;17.50
10304;DHT22;5197;48.152;8.590;2024-03-23T16:33:30;3.20;17.20
10304;DHT22;5197;48.152;8.590;2024-03-23T16:36:03;3.10;17.10
10304;DHT22;5197;48.152;8.590;2024-03-23T16:38:36;3.10;17.10
10304;DHT22;5197;48.152;8.590;2024-03-23T16:41:08;3.20;16.60
10304;DHT22;5197;48.152;8.590;2024-03-23T16:43:36;3.10;14.90
10304;DHT22;5197;48.152;8.590;2024-03-23T16:46:06;3.30;13.70
10304;DHT22;5197;48.152;8.590;2024-03-23T16:48:35;3.50;11.70
10304;DHT22;5197;48.152;8.590;2024-03-23T16:51:02;3.50;12.50
10304;DHT22;5197;48.152;8.590;2024-03-23T16:53:33;3.60;11.50
10304;DHT22;5197;48.152;8.590;2024-03-23T16:56:06;3.70;10.90
10304;DHT22;5197;48.152;8.590;2024-03-23T16:58:41;3.70;10.50
10304;DHT22;5197;48.152;8.590;2024-03-23T17:01:12;3.80;10.00
10304;DHT22;5197;48.152;8.590;2024-03-23T17:03:51;3.80;9.60
10304;DHT22;5197;48.152;8.590;2024-03-23T17:06:18;3.90;9.70
10304;DHT22;5197;48.152;8.590;2024-03-23T17:08:46;3.80;10.40
10304;DHT22;5197;48.152;8.590;2024-03-23T17:11:13;3.80;10.50
10304;DHT22;5197;48.152;8.590;2024-03-23T17:13:39;3.70;10.70
10304;DHT22;5197;48.152;8.590;2024-03-23T17:16:05;3.70;10.70
10304;DHT22;5197;48.152;8.590;2024-03-23T17:18:32;3.80;10.30